Time;durP1;ratioP1;P1;durP2;ratioP2;P2;SDS_P1;SDS_P2;PMS_P1;PMS_P2;Temp;Humidity;BMP_temperature;BMP_pressure;BME280_temperature;BME280_humidity;BME280_pressure;Samples;Min_cycle;Max_cycle;Signal;HPM_P1;HPM_P2
2023/10/22 00:01:56;;;;;;;;;;;11.50;99.90;;;;;;5083452;28;19979;-71
2023/10/22 00:04:22;;;;;;;;;;;11.50;99.90;;;;;;5084546;28;19924;-71
2023/10/22 00:06:49;;;;;;;;;;;11.50;99.90;;;;;;5084640;28;19920;-71
2023/10/22 00:09:17;;;;;;;;;;;11.40;99.90;;;;;;5084823;28;19926;-70
2023/10/22 00:11:44;;;;;;;;;;;11.40;99.90;;;;;;5084935;28;19963;-70
2023/10/22 00:14:10;;;;;;;;;;;11.40;99.90;;;;;;5081238;28;19980;-71
2023/10/22 00:16:37;;;;;;;;;;;11.40;99.90;;;;;;5083912;28;19920;-71
2023/10/22 00:19:03;;;;;;;;;;;11.40;99.90;;;;;;5083521;28;19921;-71
2023/10/22 00:21:30;;;;;;;;;;;11.40;99.90;;;;;;5084528;28;19984;-71
2023/10/22 00:23:57;;;;;;;;;;;11.40;99.90;;;;;;5084567;28;19921;-71
2023/10/22 00:26:25;;;;;;;;;;;11.40;99.90;;;;;;5083714;28;19987;-71
2023/10/22 00:28:51;;;;;;;;;;;11.40;99.90;;;;;;5084104;28;20168;-71
2023/10/22 00:31:18;;;;;;;;;;;11.40;99.90;;;;;;5083991;28;19920;-71
2023/10/22 00:33:44;;;;;;;;;;;11.40;99.90;;;;;;5084197;28;19920;-71
2023/10/22 00:36:11;;;;;;;;;;;11.40;99.90;;;;;;5080506;28;19962;-71
2023/10/22 00:38:38;;;;;;;;;;;11.30;99.90;;;;;;5083734;28;19920;-71
2023/10/22 00:41:04;;;;;;;;;;;11.30;99.90;;;;;;5081237;28;19983;-73
2023/10/22 00:43:32;;;;;;;;;;;11.30;99.90;;;;;;5083922;28;19928;-71
2023/10/22 00:45:59;;;;;;;;;;;11.30;99.90;;;;;;5083195;28;19999;-71
2023/10/22 00:48:26;;;;;;;;;;;11.30;99.90;;;;;;5083861;28;20129;-71
2023/10/22 00:50:56;;;;;;;;;;;11.30;99.90;;;;;;5083011;28;20140;-71
2023/10/22 00:53:23;;;;;;;;;;;11.30;99.90;;;;;;5080448;28;19956;-71
2023/10/22 00:55:50;;;;;;;;;;;11.30;99.90;;;;;;5083248;28;19962;-71
2023/10/22 00:58:17;;;;;;;;;;;11.30;99.90;;;;;;5084027;28;19920;-70
2023/10/22 01:00:45;;;;;;;;;;;11.30;99.90;;;;;;5082040;28;19962;-71
2023/10/22 01:03:12;;;;;;;;;;;11.20;99.90;;;;;;5081297;28;19984;-70
2023/10/22 01:05:39;;;;;;;;;;;11.20;99.90;;;;;;5082936;28;20264;-71
2023/10/22 01:08:06;;;;;;;;;;;11.10;99.90;;;;;;5087139;28;19960;-71
2023/10/22 01:10:32;;;;;;;;;;;11.10;99.90;;;;;;5083607;28;19998;-71
2023/10/22 01:12:59;;;;;;;;;;;11.10;99.90;;;;;;5083320;28;19929;-70
2023/10/22 01:15:26;;;;;;;;;;;11.10;99.90;;;;;;5082841;28;19956;-71
2023/10/22 01:17:54;;;;;;;;;;;11.00;99.90;;;;;;5082984;28;19963;-70
2023/10/22 01:20:21;;;;;;;;;;;11.00;99.90;;;;;;5068369;28;19920;-70
2023/10/22 01:22:48;;;;;;;;;;;11.00;99.90;;;;;;5069368;28;19928;-71
2023/10/22 01:25:16;;;;;;;;;;;10.90;99.90;;;;;;5070899;28;19960;-71
2023/10/22 01:27:43;;;;;;;;;;;10.90;99.90;;;;;;5068200;28;19988;-71
2023/10/22 01:30:09;;;;;;;;;;;10.90;99.90;;;;;;5070403;28;19979;-73
2023/10/22 01:32:36;;;;;;;;;;;10.90;99.90;;;;;;5072464;28;19979;-71
2023/10/22 01:35:03;;;;;;;;;;;10.90;99.90;;;;;;5070557;28;19951;-71
2023/10/22 01:37:29;;;;;;;;;;;10.90;99.90;;;;;;5067953;28;19990;-69
2023/10/22 01:39:59;;;;;;;;;;;10.80;99.90;;;;;;5073992;28;20117;-71
2023/10/22 01:42:27;;;;;;;;;;;10.80;99.90;;;;;;5074374;28;19920;-71
2023/10/22 01:44:54;;;;;;;;;;;10.80;99.90;;;;;;5067471;28;19963;-70
2023/10/22 01:47:20;;;;;;;;;;;10.80;99.90;;;;;;5069232;28;20099;-71
2023/10/22 01:49:48;;;;;;;;;;;10.80;99.90;;;;;;5066904;28;19925;-71
2023/10/22 01:52:14;;;;;;;;;;;10.70;99.90;;;;;;5070455;28;19958;-71
2023/10/22 01:54:41;;;;;;;;;;;10.70;99.90;;;;;;5067483;28;19921;-71
2023/10/22 01:57:08;;;;;;;;;;;10.70;99.90;;;;;;5068607;28;19979;-70
2023/10/22 01:59:37;;;;;;;;;;;10.70;99.90;;;;;;5063624;28;19920;-71
2023/10/22 02:02:04;;;;;;;;;;;10.60;99.90;;;;;;5075024;28;19932;-71
2023/10/22 02:04:31;;;;;;;;;;;10.60;99.90;;;;;;5067384;28;19952;-71
2023/10/22 02:06:58;;;;;;;;;;;10.60;99.90;;;;;;5067760;28;19920;-69
2023/10/22 02:09:24;;;;;;;;;;;10.60;99.90;;;;;;5074654;28;19979;-71
2023/10/22 02:11:52;;;;;;;;;;;10.60;99.90;;;;;;5073145;28;19920;-71
2023/10/22 02:14:18;;;;;;;;;;;10.50;99.90;;;;;;5076840;28;19920;-71
2023/10/22 02:16:46;;;;;;;;;;;10.50;99.90;;;;;;5067864;28;19921;-70
2023/10/22 02:19:13;;;;;;;;;;;10.40;99.90;;;;;;5074051;28;19951;-71
2023/10/22 02:21:40;;;;;;;;;;;10.40;99.90;;;;;;5068469;28;19952;-71
2023/10/22 02:24:07;;;;;;;;;;;10.40;99.90;;;;;;5071024;28;19921;-71
2023/10/22 02:26:34;;;;;;;;;;;10.40;99.90;;;;;;5067863;28;19995;-70
2023/10/22 02:29:00;;;;;;;;;;;10.40;99.90;;;;;;5068290;28;19928;-71
2023/10/22 02:31:27;;;;;;;;;;;10.30;99.90;;;;;;5068109;28;19920;-71
2023/10/22 02:34:02;;;;;;;;;;;10.40;99.90;;;;;;5068465;28;19921;-71
2023/10/22 02:36:29;;;;;;;;;;;10.40;99.90;;;;;;5068349;28;19984;-71
2023/10/22 02:38:56;;;;;;;;;;;10.30;99.90;;;;;;5074999;28;19921;-71
2023/10/22 02:41:22;;;;;;;;;;;10.30;99.90;;;;;;5084331;28;19924;-71
2023/10/22 02:43:49;;;;;;;;;;;10.30;99.90;;;;;;5082373;28;19955;-71
2023/10/22 02:46:16;;;;;;;;;;;10.30;99.90;;;;;;5081874;28;19955;-71
2023/10/22 02:48:42;;;;;;;;;;;10.30;99.90;;;;;;5081850;28;19928;-70
2023/10/22 02:51:10;;;;;;;;;;;10.30;99.90;;;;;;5082222;28;20210;-70
2023/10/22 02:53:38;;;;;;;;;;;10.30;99.90;;;;;;5082549;28;19988;-70
2023/10/22 02:56:04;;;;;;;;;;;10.30;99.90;;;;;;5080608;28;19920;-71
2023/10/22 02:58:31;;;;;;;;;;;10.40;99.90;;;;;;5082278;28;19956;-70
2023/10/22 03:01:03;;;;;;;;;;;10.40;99.90;;;;;;5082123;28;19920;-71
2023/10/22 03:03:30;;;;;;;;;;;10.50;99.90;;;;;;5085800;28;19951;-71
2023/10/22 03:05:58;;;;;;;;;;;10.50;99.90;;;;;;5084672;28;19924;-71
2023/10/22 03:08:26;;;;;;;;;;;10.60;99.90;;;;;;5086024;28;19952;-70
2023/10/22 03:10:52;;;;;;;;;;;10.60;99.90;;;;;;5086062;28;19963;-71
2023/10/22 03:13:19;;;;;;;;;;;10.50;99.90;;;;;;5085725;28;20277;-71
2023/10/22 03:15:46;;;;;;;;;;;10.60;99.90;;;;;;5085014;28;19955;-70
2023/10/22 03:18:13;;;;;;;;;;;10.60;99.90;;;;;;5088780;28;20179;-71
2023/10/22 03:20:40;;;;;;;;;;;10.60;99.90;;;;;;5089147;28;19921;-71
2023/10/22 03:23:06;;;;;;;;;;;10.60;99.90;;;;;;5087785;28;19955;-71
2023/10/22 03:25:34;;;;;;;;;;;10.60;99.90;;;;;;5085310;28;19921;-71
2023/10/22 03:28:01;;;;;;;;;;;10.60;99.90;;;;;;5085596;28;19958;-71
2023/10/22 03:30:28;;;;;;;;;;;10.60;99.90;;;;;;5085152;28;19980;-71
2023/10/22 03:32:55;;;;;;;;;;;10.60;99.90;;;;;;5085630;28;19925;-71
2023/10/22 03:35:22;;;;;;;;;;;10.60;99.90;;;;;;5088463;28;19927;-71
2023/10/22 03:37:48;;;;;;;;;;;10.60;99.90;;;;;;5092339;28;20099;-71
2023/10/22 03:40:15;;;;;;;;;;;10.50;99.90;;;;;;5088075;28;19928;-71
2023/10/22 03:42:43;;;;;;;;;;;10.50;99.90;;;;;;5085611;28;19963;-70
2023/10/22 03:45:10;;;;;;;;;;;10.50;99.90;;;;;;5088135;28;19988;-71
2023/10/22 03:47:37;;;;;;;;;;;10.50;99.90;;;;;;5085218;28;19920;-71
2023/10/22 03:50:04;;;;;;;;;;;10.50;99.90;;;;;;5085267;28;19922;-71
2023/10/22 03:52:30;;;;;;;;;;;10.50;99.90;;;;;;5085394;28;19962;-71
2023/10/22 03:54:57;;;;;;;;;;;10.50;99.90;;;;;;5084135;28;19920;-71
2023/10/22 03:57:23;;;;;;;;;;;10.40;99.90;;;;;;5084734;28;19927;-71
2023/10/22 03:59:51;;;;;;;;;;;10.40;99.90;;;;;;5084697;28;19920;-71
2023/10/22 04:02:18;;;;;;;;;;;10.40;99.90;;;;;;5076581;28;19956;-71
2023/10/22 04:04:45;;;;;;;;;;;10.40;99.90;;;;;;5069493;28;19921;-71
2023/10/22 04:07:11;;;;;;;;;;;10.40;99.90;;;;;;5074605;28;19967;-71
2023/10/22 04:09:38;;;;;;;;;;;10.40;99.90;;;;;;5070753;28;19921;-71
2023/10/22 04:12:05;;;;;;;;;;;10.40;99.90;;;;;;5072401;28;19963;-71
2023/10/22 04:14:33;;;;;;;;;;;10.30;99.90;;;;;;5068544;28;20231;-71
2023/10/22 04:17:01;;;;;;;;;;;10.30;99.90;;;;;;5070103;28;19963;-71
2023/10/22 04:19:28;;;;;;;;;;;10.30;99.90;;;;;;5070506;28;19988;-71
2023/10/22 04:21:54;;;;;;;;;;;10.30;99.90;;;;;;5069728;28;19920;-71
2023/10/22 04:24:21;;;;;;;;;;;10.20;99.90;;;;;;5071257;28;20004;-70
2023/10/22 04:26:47;;;;;;;;;;;10.20;99.90;;;;;;5068716;28;19921;-71
2023/10/22 04:29:14;;;;;;;;;;;10.20;99.90;;;;;;5071675;28;19983;-71
2023/10/22 04:31:41;;;;;;;;;;;10.20;99.90;;;;;;5069335;28;19987;-70
2023/10/22 04:34:08;;;;;;;;;;;10.10;99.90;;;;;;5071269;28;19939;-71
2023/10/22 04:36:35;;;;;;;;;;;10.10;99.90;;;;;;5073960;28;20254;-70
2023/10/22 04:39:02;;;;;;;;;;;10.00;99.90;;;;;;5069869;28;19921;-70
2023/10/22 04:41:28;;;;;;;;;;;10.00;99.90;;;;;;5071648;28;20261;-70
2023/10/22 04:43:55;;;;;;;;;;;9.90;99.90;;;;;;5069437;28;19927;-72
2023/10/22 04:46:21;;;;;;;;;;;9.80;99.90;;;;;;5077473;28;19983;-71
2023/10/22 04:48:48;;;;;;;;;;;9.80;99.90;;;;;;5083374;28;20195;-71
2023/10/22 04:51:17;;;;;;;;;;;9.80;99.90;;;;;;5077225;28;19926;-71
2023/10/22 04:53:44;;;;;;;;;;;9.80;99.90;;;;;;5068882;28;19956;-70
2023/10/22 04:56:11;;;;;;;;;;;9.80;99.90;;;;;;5075696;28;19929;-71
2023/10/22 04:58:37;;;;;;;;;;;9.80;99.90;;;;;;5074048;28;19964;-70
2023/10/22 05:01:04;;;;;;;;;;;9.80;99.90;;;;;;5068424;28;19987;-70
2023/10/22 05:03:30;;;;;;;;;;;9.70;99.90;;;;;;5068723;28;20261;-70
2023/10/22 05:05:57;;;;;;;;;;;9.70;99.90;;;;;;5068603;28;19920;-71
2023/10/22 05:08:26;;;;;;;;;;;9.60;99.90;;;;;;5070016;28;19924;-70
2023/10/22 05:10:53;;;;;;;;;;;9.60;99.90;;;;;;5069279;28;19980;-71
2023/10/22 05:13:22;;;;;;;;;;;9.70;99.90;;;;;;5068194;28;19920;-72
2023/10/22 05:15:53;;;;;;;;;;;9.60;99.90;;;;;;5068795;28;19920;-70
2023/10/22 05:18:19;;;;;;;;;;;9.60;99.90;;;;;;5068464;28;19959;-71
2023/10/22 05:20:46;;;;;;;;;;;9.50;99.90;;;;;;5068558;28;19983;-70
2023/10/22 05:23:12;;;;;;;;;;;9.60;99.90;;;;;;5072395;28;19943;-70
2023/10/22 05:25:40;;;;;;;;;;;9.60;99.90;;;;;;5068648;28;19983;-71
2023/10/22 05:28:07;;;;;;;;;;;9.60;99.90;;;;;;5076101;28;19975;-71
2023/10/22 05:30:33;;;;;;;;;;;9.50;99.90;;;;;;5079978;28;19956;-70
2023/10/22 05:33:01;;;;;;;;;;;9.50;99.90;;;;;;5069140;28;20220;-70
2023/10/22 05:35:27;;;;;;;;;;;9.40;99.90;;;;;;5068175;28;19921;-70
2023/10/22 05:37:54;;;;;;;;;;;9.40;99.90;;;;;;5068873;28;19991;-71
2023/10/22 05:40:20;;;;;;;;;;;9.40;99.90;;;;;;5069949;28;19959;-70
2023/10/22 05:42:48;;;;;;;;;;;9.40;99.90;;;;;;5069205;28;19927;-70
2023/10/22 05:45:15;;;;;;;;;;;9.40;99.90;;;;;;5069601;28;19991;-70
2023/10/22 05:47:42;;;;;;;;;;;9.40;99.90;;;;;;5068837;28;19967;-71
2023/10/22 05:50:09;;;;;;;;;;;9.30;99.90;;;;;;5075902;28;19929;-70
2023/10/22 05:52:35;;;;;;;;;;;9.30;99.90;;;;;;5073676;28;19928;-70
2023/10/22 05:55:02;;;;;;;;;;;9.30;99.90;;;;;;5068263;28;19921;-71
2023/10/22 05:57:28;;;;;;;;;;;9.30;99.90;;;;;;5068661;28;20189;-71
2023/10/22 05:59:58;;;;;;;;;;;9.30;99.90;;;;;;5074925;28;19980;-70
2023/10/22 06:02:25;;;;;;;;;;;9.30;99.90;;;;;;5071942;28;20260;-70
2023/10/22 06:04:52;;;;;;;;;;;9.30;99.90;;;;;;5068223;28;19952;-71
2023/10/22 06:07:18;;;;;;;;;;;9.30;99.90;;;;;;5077609;28;19920;-71
2023/10/22 06:09:45;;;;;;;;;;;9.30;99.90;;;;;;5086202;28;19924;-71
2023/10/22 06:12:11;;;;;;;;;;;9.30;99.90;;;;;;5079478;28;20210;-71
2023/10/22 06:14:38;;;;;;;;;;;9.30;99.90;;;;;;5082706;28;19988;-71
2023/10/22 06:17:06;;;;;;;;;;;9.30;99.90;;;;;;5082131;28;19988;-71
2023/10/22 06:19:33;;;;;;;;;;;9.30;99.90;;;;;;5082868;28;19944;-70
2023/10/22 06:21:59;;;;;;;;;;;9.30;99.90;;;;;;5082830;28;19982;-71
2023/10/22 06:24:26;;;;;;;;;;;9.30;99.90;;;;;;5082335;28;19958;-71
2023/10/22 06:26:53;;;;;;;;;;;9.30;99.90;;;;;;5082055;28;19951;-71
2023/10/22 06:29:19;;;;;;;;;;;9.20;99.90;;;;;;5068748;28;19926;-71
2023/10/22 06:31:46;;;;;;;;;;;9.20;99.90;;;;;;5083174;28;19927;-71
2023/10/22 06:34:14;;;;;;;;;;;9.20;99.90;;;;;;5077318;28;19928;-70
2023/10/22 06:36:40;;;;;;;;;;;9.20;99.90;;;;;;5073335;28;19962;-69
2023/10/22 06:39:07;;;;;;;;;;;9.20;99.90;;;;;;5076855;28;19921;-70
2023/10/22 06:41:33;;;;;;;;;;;9.20;99.90;;;;;;5077188;28;19983;-71
2023/10/22 06:44:00;;;;;;;;;;;9.20;99.90;;;;;;5073413;28;19987;-70
2023/10/22 06:46:27;;;;;;;;;;;9.20;99.90;;;;;;5070777;28;19955;-71
2023/10/22 06:48:54;;;;;;;;;;;9.20;99.90;;;;;;5072867;28;20203;-71
2023/10/22 06:51:22;;;;;;;;;;;9.20;99.90;;;;;;5073278;28;19983;-70
2023/10/22 06:53:48;;;;;;;;;;;9.20;99.90;;;;;;5075603;28;20113;-70
2023/10/22 06:56:15;;;;;;;;;;;9.30;99.90;;;;;;5085977;28;19974;-71
2023/10/22 06:58:42;;;;;;;;;;;9.30;99.90;;;;;;5076097;28;19963;-71
2023/10/22 07:01:10;;;;;;;;;;;9.30;99.90;;;;;;5072658;28;20121;-70
2023/10/22 07:03:37;;;;;;;;;;;9.30;99.90;;;;;;5066234;28;19956;-71
2023/10/22 07:06:05;;;;;;;;;;;9.40;99.90;;;;;;5071851;28;19928;-71
2023/10/22 07:08:33;;;;;;;;;;;9.40;99.90;;;;;;5080032;28;20149;-71
2023/10/22 07:11:00;;;;;;;;;;;9.50;99.90;;;;;;5080359;28;20139;-70
2023/10/22 07:13:27;;;;;;;;;;;9.50;99.90;;;;;;5084035;28;19952;-70
2023/10/22 07:15:54;;;;;;;;;;;9.50;99.90;;;;;;5085987;28;19955;-71
2023/10/22 07:18:21;;;;;;;;;;;9.50;99.90;;;;;;5078466;28;19988;-70
2023/10/22 07:20:47;;;;;;;;;;;9.60;99.90;;;;;;5085908;28;20206;-70
2023/10/22 07:23:14;;;;;;;;;;;9.60;99.90;;;;;;5085961;28;20253;-71
2023/10/22 07:25:42;;;;;;;;;;;9.70;99.90;;;;;;5085698;28;20022;-70
2023/10/22 07:28:09;;;;;;;;;;;9.70;99.90;;;;;;5086156;28;19956;-71
2023/10/22 07:30:35;;;;;;;;;;;9.70;99.90;;;;;;5088543;28;19951;-70
2023/10/22 07:33:02;;;;;;;;;;;9.80;99.90;;;;;;5085675;28;20058;-70
2023/10/22 07:35:28;;;;;;;;;;;9.90;99.90;;;;;;5085359;28;19926;-70
2023/10/22 07:37:55;;;;;;;;;;;9.90;99.90;;;;;;5085782;28;19939;-69
2023/10/22 07:40:22;;;;;;;;;;;10.00;99.90;;;;;;5083904;28;19979;-70
2023/10/22 07:42:50;;;;;;;;;;;10.00;99.90;;;;;;5081779;28;19962;-71
2023/10/22 07:45:17;;;;;;;;;;;10.10;99.90;;;;;;5085109;28;19956;-70
2023/10/22 07:47:43;;;;;;;;;;;10.10;99.90;;;;;;5085497;28;19921;-69
2023/10/22 07:50:10;;;;;;;;;;;10.20;99.90;;;;;;5085561;28;20205;-70
2023/10/22 07:52:37;;;;;;;;;;;10.20;99.90;;;;;;5085495;28;19971;-71
2023/10/22 07:55:05;;;;;;;;;;;10.20;99.90;;;;;;5082296;28;19927;-71
2023/10/22 07:57:32;;;;;;;;;;;10.30;99.90;;;;;;5084271;28;19927;-70
2023/10/22 08:00:00;;;;;;;;;;;10.30;99.90;;;;;;5089740;28;19924;-70
2023/10/22 08:02:27;;;;;;;;;;;10.40;99.90;;;;;;5090266;28;19920;-70
2023/10/22 08:04:53;;;;;;;;;;;10.50;99.90;;;;;;5083978;28;19928;-71
2023/10/22 08:07:21;;;;;;;;;;;10.60;99.90;;;;;;5085157;28;20177;-71
2023/10/22 08:09:47;;;;;;;;;;;10.60;99.90;;;;;;5084684;28;20153;-71
2023/10/22 08:12:14;;;;;;;;;;;10.70;99.90;;;;;;5084969;28;20154;-71
2023/10/22 08:14:41;;;;;;;;;;;10.70;99.90;;;;;;5084478;28;19927;-71
2023/10/22 08:17:09;;;;;;;;;;;10.80;99.90;;;;;;5084555;28;19927;-71
2023/10/22 08:19:36;;;;;;;;;;;10.80;99.90;;;;;;5084902;28;19963;-71
2023/10/22 08:22:02;;;;;;;;;;;10.90;99.90;;;;;;5084523;28;19966;-70
2023/10/22 08:24:29;;;;;;;;;;;10.90;99.90;;;;;;5084264;28;19988;-71
2023/10/22 08:26:59;;;;;;;;;;;11.00;99.90;;;;;;5084438;28;19921;-71
2023/10/22 08:29:26;;;;;;;;;;;11.10;99.90;;;;;;5084465;28;19967;-71
2023/10/22 08:31:52;;;;;;;;;;;11.10;99.90;;;;;;5084381;28;19940;-71
2023/10/22 08:34:22;;;;;;;;;;;11.20;99.90;;;;;;5076073;28;19924;-70
2023/10/22 08:36:49;;;;;;;;;;;11.30;99.90;;;;;;5083906;28;19921;-71
2023/10/22 08:39:15;;;;;;;;;;;11.30;99.90;;;;;;5086470;28;19920;-71
2023/10/22 08:41:45;;;;;;;;;;;11.40;99.90;;;;;;5078641;28;20218;-71
2023/10/22 08:44:13;;;;;;;;;;;11.50;99.90;;;;;;5084258;28;19975;-70
2023/10/22 08:46:40;;;;;;;;;;;11.60;99.90;;;;;;5083489;28;20257;-71
2023/10/22 08:49:07;;;;;;;;;;;11.70;99.90;;;;;;5084470;28;19924;-70
2023/10/22 08:51:36;;;;;;;;;;;11.70;99.90;;;;;;5084316;28;19958;-70
2023/10/22 08:54:04;;;;;;;;;;;11.80;99.90;;;;;;5082360;28;19956;-71
2023/10/22 08:56:31;;;;;;;;;;;11.90;99.90;;;;;;5082762;28;19996;-71
2023/10/22 08:58:59;;;;;;;;;;;12.00;99.90;;;;;;5083398;28;19984;-70
2023/10/22 09:01:26;;;;;;;;;;;12.10;99.90;;;;;;5084133;28;19983;-71
2023/10/22 09:03:53;;;;;;;;;;;12.20;99.90;;;;;;5083857;28;19976;-70
2023/10/22 09:06:22;;;;;;;;;;;12.20;99.90;;;;;;5082734;28;20167;-71
2023/10/22 09:08:51;;;;;;;;;;;12.20;99.90;;;;;;5083933;28;19978;-71
2023/10/22 09:11:18;;;;;;;;;;;12.30;99.90;;;;;;5083842;28;20236;-70
2023/10/22 09:13:45;;;;;;;;;;;12.30;99.90;;;;;;5084054;28;19962;-70
2023/10/22 09:16:12;;;;;;;;;;;12.40;99.90;;;;;;5083269;28;19995;-71
2023/10/22 09:18:42;;;;;;;;;;;12.50;99.90;;;;;;5083866;28;19984;-71
2023/10/22 09:21:09;;;;;;;;;;;12.50;99.90;;;;;;5083958;28;19920;-70
2023/10/22 09:23:36;;;;;;;;;;;12.60;99.90;;;;;;5083861;28;19951;-71
2023/10/22 09:26:04;;;;;;;;;;;12.70;99.90;;;;;;5083122;28;19920;-71
2023/10/22 09:28:30;;;;;;;;;;;12.70;99.90;;;;;;5083616;28;19979;-71
2023/10/22 09:30:58;;;;;;;;;;;12.80;99.90;;;;;;5083439;28;19951;-71
2023/10/22 09:33:32;;;;;;;;;;;12.90;99.90;;;;;;5083757;28;20054;-71
2023/10/22 09:35:59;;;;;;;;;;;12.90;99.90;;;;;;5082844;28;19927;-70
2023/10/22 09:38:40;;;;;;;;;;;13.00;99.90;;;;;;5083238;28;20121;-70
2023/10/22 09:41:08;;;;;;;;;;;13.00;99.90;;;;;;5082921;28;19950;-70
2023/10/22 09:43:34;;;;;;;;;;;13.20;99.90;;;;;;5083713;28;19920;-70
2023/10/22 09:46:01;;;;;;;;;;;13.20;99.90;;;;;;5083335;28;19983;-70
2023/10/22 09:48:30;;;;;;;;;;;13.30;99.90;;;;;;5083264;28;19952;-71
2023/10/22 09:50:58;;;;;;;;;;;13.30;99.90;;;;;;5083454;28;19966;-70
2023/10/22 09:53:27;;;;;;;;;;;13.40;99.90;;;;;;5081503;28;19956;-70
2023/10/22 09:55:54;;;;;;;;;;;13.50;99.90;;;;;;5081846;28;19955;-70
2023/10/22 09:58:27;;;;;;;;;;;13.50;99.90;;;;;;5084355;28;19987;-71
2023/10/22 10:00:54;;;;;;;;;;;13.60;99.90;;;;;;5085698;28;20182;-70
2023/10/22 10:03:21;;;;;;;;;;;13.70;99.90;;;;;;5083354;28;19956;-70
2023/10/22 10:05:48;;;;;;;;;;;13.70;99.90;;;;;;5082822;28;20210;-71
2023/10/22 10:08:15;;;;;;;;;;;13.80;99.90;;;;;;5080040;28;19960;-71
2023/10/22 10:10:42;;;;;;;;;;;13.80;99.90;;;;;;5082466;28;20168;-71
2023/10/22 10:13:08;;;;;;;;;;;13.90;99.90;;;;;;5082810;28;19983;-71
2023/10/22 10:15:38;;;;;;;;;;;14.00;99.90;;;;;;5077277;28;20305;-71
2023/10/22 10:18:06;;;;;;;;;;;14.20;99.90;;;;;;5083160;28;19944;-71
2023/10/22 10:20:35;;;;;;;;;;;14.20;99.90;;;;;;5083094;28;19920;-69
2023/10/22 10:23:03;;;;;;;;;;;14.30;99.90;;;;;;5083049;28;19966;-70
2023/10/22 10:25:30;;;;;;;;;;;14.30;99.90;;;;;;5082672;28;19955;-71
2023/10/22 10:28:00;;;;;;;;;;;14.40;99.90;;;;;;5083049;28;19974;-70
2023/10/22 10:30:26;;;;;;;;;;;14.40;99.90;;;;;;5083703;28;19948;-70
2023/10/22 10:32:54;;;;;;;;;;;14.60;99.90;;;;;;5084271;28;19920;-70
2023/10/22 10:35:21;;;;;;;;;;;14.70;99.90;;;;;;5074251;28;19940;-70
2023/10/22 10:38:06;;;;;;;;;;;14.70;99.90;;;;;;5083006;28;19987;-70
2023/10/22 10:40:42;;;;;;;;;;;14.70;99.90;;;;;;5087625;28;20010;-71
2023/10/22 10:43:09;;;;;;;;;;;14.80;99.90;;;;;;5082635;28;19924;-71
2023/10/22 10:45:38;;;;;;;;;;;14.80;99.90;;;;;;5082449;28;19987;-70
2023/10/22 10:48:06;;;;;;;;;;;14.60;99.90;;;;;;5082805;28;19958;-70
2023/10/22 10:50:32;;;;;;;;;;;14.50;99.90;;;;;;5082454;28;19955;-70
2023/10/22 10:53:02;;;;;;;;;;;14.40;99.90;;;;;;5082244;28;20213;-70
2023/10/22 10:55:30;;;;;;;;;;;14.30;99.90;;;;;;5086789;28;19920;-70
2023/10/22 10:57:56;;;;;;;;;;;14.20;99.90;;;;;;5081739;28;19927;-71
2023/10/22 11:00:27;;;;;;;;;;;14.20;99.90;;;;;;5082273;28;19920;-70
2023/10/22 11:02:54;;;;;;;;;;;14.20;99.90;;;;;;5082459;28;19943;-71
2023/10/22 11:05:31;;;;;;;;;;;14.30;99.90;;;;;;5080905;28;19959;-70
2023/10/22 11:07:58;;;;;;;;;;;14.50;99.90;;;;;;5082478;28;20153;-70
2023/10/22 11:10:27;;;;;;;;;;;14.60;99.90;;;;;;5082444;28;19956;-71
2023/10/22 11:13:01;;;;;;;;;;;14.80;99.90;;;;;;5082575;28;19959;-70
2023/10/22 11:15:31;;;;;;;;;;;14.80;99.90;;;;;;5094315;28;19955;-70
2023/10/22 11:18:00;;;;;;;;;;;14.80;99.90;;;;;;5084066;28;19984;-70
2023/10/22 11:20:27;;;;;;;;;;;14.90;99.90;;;;;;5084413;28;19993;-70
2023/10/22 11:22:55;;;;;;;;;;;14.90;99.90;;;;;;5086434;28;20114;-71
2023/10/22 11:25:22;;;;;;;;;;;14.70;99.90;;;;;;5085690;28;20257;-71
2023/10/22 11:27:48;;;;;;;;;;;14.70;99.90;;;;;;5085772;28;20262;-71
2023/10/22 11:30:32;;;;;;;;;;;14.80;99.90;;;;;;5085982;28;20146;-70
2023/10/22 11:32:59;;;;;;;;;;;15.00;99.90;;;;;;5090472;28;19959;-70
2023/10/22 11:35:29;;;;;;;;;;;15.30;99.90;;;;;;5085423;28;20349;-70
2023/10/22 11:37:57;;;;;;;;;;;15.60;99.90;;;;;;5085681;28;19921;-71
2023/10/22 11:40:23;;;;;;;;;;;15.80;99.90;;;;;;5090774;28;19983;-71
2023/10/22 11:42:50;;;;;;;;;;;16.00;99.90;;;;;;5077136;28;19938;-70
2023/10/22 11:45:17;;;;;;;;;;;16.20;99.90;;;;;;5083140;28;19995;-71
2023/10/22 11:47:43;;;;;;;;;;;16.30;99.90;;;;;;5085348;28;20003;-71
2023/10/22 11:50:13;;;;;;;;;;;16.50;99.90;;;;;;5085564;28;19920;-71
2023/10/22 11:52:52;;;;;;;;;;;16.60;99.90;;;;;;5085435;28;19921;-70
2023/10/22 11:55:21;;;;;;;;;;;16.50;99.90;;;;;;5082521;28;19924;-70
2023/10/22 11:57:47;;;;;;;;;;;16.40;99.90;;;;;;5084486;28;20157;-71
2023/10/22 12:00:16;;;;;;;;;;;16.50;99.90;;;;;;5085158;28;20464;-71
2023/10/22 12:02:43;;;;;;;;;;;16.60;99.90;;;;;;5089759;28;19920;-71
2023/10/22 12:05:10;;;;;;;;;;;16.70;99.90;;;;;;5084450;28;19983;-71
2023/10/22 12:07:36;;;;;;;;;;;16.60;99.90;;;;;;5085314;28;19992;-71
2023/10/22 12:10:05;;;;;;;;;;;16.80;99.90;;;;;;5084866;28;20224;-72
2023/10/22 12:12:33;;;;;;;;;;;16.80;99.90;;;;;;5084964;28;19970;-70
2023/10/22 12:15:00;;;;;;;;;;;16.90;99.90;;;;;;5082400;28;19924;-70
2023/10/22 12:17:26;;;;;;;;;;;17.00;99.90;;;;;;5084784;28;19991;-71
2023/10/22 12:19:53;;;;;;;;;;;17.20;99.90;;;;;;5084995;28;19987;-70
2023/10/22 12:22:20;;;;;;;;;;;17.30;99.90;;;;;;5085017;28;20146;-70
2023/10/22 12:24:48;;;;;;;;;;;17.30;99.90;;;;;;5084936;28;20397;-71
2023/10/22 12:27:15;;;;;;;;;;;17.30;99.90;;;;;;5084529;28;19926;-71
2023/10/22 12:29:43;;;;;;;;;;;17.20;99.90;;;;;;5085612;28;19991;-70
2023/10/22 12:32:10;;;;;;;;;;;17.30;99.90;;;;;;5084943;28;19987;-70
2023/10/22 12:34:36;;;;;;;;;;;17.30;99.90;;;;;;5081108;28;19920;-70
2023/10/22 12:37:03;;;;;;;;;;;17.20;99.90;;;;;;5084331;28;19992;-71
2023/10/22 12:39:30;;;;;;;;;;;17.00;99.90;;;;;;5084674;28;19932;-70
2023/10/22 12:41:56;;;;;;;;;;;16.80;99.90;;;;;;5084586;28;19921;-71
2023/10/22 12:44:24;;;;;;;;;;;16.80;99.90;;;;;;5084595;28;19920;-71
2023/10/22 12:46:52;;;;;;;;;;;16.80;99.90;;;;;;5083347;28;19987;-71
2023/10/22 12:49:18;;;;;;;;;;;17.00;99.90;;;;;;5081997;28;19959;-71
2023/10/22 12:51:45;;;;;;;;;;;17.10;99.90;;;;;;5084340;28;19924;-71
2023/10/22 12:54:12;;;;;;;;;;;17.10;99.90;;;;;;5091812;28;19934;-71
2023/10/22 12:56:38;;;;;;;;;;;17.10;99.90;;;;;;5088534;28;19955;-71
2023/10/22 12:59:05;;;;;;;;;;;17.00;99.90;;;;;;5090064;28;19995;-71
2023/10/22 13:01:32;;;;;;;;;;;16.90;99.90;;;;;;5083048;28;19920;-71
2023/10/22 13:04:00;;;;;;;;;;;16.70;99.90;;;;;;5083958;28;19921;-70
2023/10/22 13:06:27;;;;;;;;;;;16.70;99.90;;;;;;5082480;28;19951;-71
2023/10/22 13:08:53;;;;;;;;;;;16.70;99.90;;;;;;5083913;28;19920;-71
2023/10/22 13:11:21;;;;;;;;;;;16.90;99.90;;;;;;5084211;28;19987;-71
2023/10/22 13:13:47;;;;;;;;;;;17.00;99.90;;;;;;5084014;28;20106;-71
2023/10/22 13:16:14;;;;;;;;;;;17.20;99.90;;;;;;5083163;28;20253;-71
2023/10/22 13:18:42;;;;;;;;;;;17.20;99.90;;;;;;5083462;28;20206;-70
2023/10/22 13:21:10;;;;;;;;;;;17.30;99.90;;;;;;5083658;28;19924;-71
2023/10/22 13:23:36;;;;;;;;;;;17.60;99.90;;;;;;5078737;28;20118;-71
2023/10/22 13:26:03;;;;;;;;;;;17.90;99.90;;;;;;5083328;28;20157;-72
2023/10/22 13:28:30;;;;;;;;;;;17.90;99.90;;;;;;5083472;28;20218;-71
2023/10/22 13:30:56;;;;;;;;;;;17.50;99.90;;;;;;5088489;28;20396;-71
2023/10/22 13:33:23;;;;;;;;;;;17.20;99.90;;;;;;5083734;28;19991;-70
2023/10/22 13:35:50;;;;;;;;;;;17.00;99.90;;;;;;5082744;28;19952;-71
2023/10/22 13:38:18;;;;;;;;;;;16.80;99.90;;;;;;5083489;28;19920;-71
2023/10/22 13:40:44;;;;;;;;;;;16.80;99.90;;;;;;5077583;28;20178;-73
2023/10/22 13:43:11;;;;;;;;;;;16.70;99.90;;;;;;5083337;28;19979;-71
2023/10/22 13:45:37;;;;;;;;;;;16.60;99.90;;;;;;5087492;28;19952;-71
2023/10/22 13:48:04;;;;;;;;;;;16.50;99.90;;;;;;5083213;28;19920;-71
2023/10/22 13:50:31;;;;;;;;;;;16.50;99.90;;;;;;5083080;28;20185;-71
2023/10/22 13:52:57;;;;;;;;;;;16.80;99.90;;;;;;5083027;28;19987;-71
2023/10/22 13:55:25;;;;;;;;;;;17.00;99.90;;;;;;5082851;28;19921;-71
2023/10/22 13:57:52;;;;;;;;;;;17.40;99.90;;;;;;5083238;28;19986;-71
2023/10/22 14:00:19;;;;;;;;;;;17.60;99.90;;;;;;5080076;28;19992;-71
2023/10/22 14:02:45;;;;;;;;;;;17.70;99.90;;;;;;5083192;28;19952;-71
2023/10/22 14:05:13;;;;;;;;;;;17.80;99.90;;;;;;5081276;28;20079;-71
2023/10/22 14:07:40;;;;;;;;;;;17.80;99.90;;;;;;5083098;28;19920;-71
2023/10/22 14:10:07;;;;;;;;;;;17.80;99.90;;;;;;5077877;28;20191;-71
2023/10/22 14:12:35;;;;;;;;;;;17.80;99.90;;;;;;5074090;28;19952;-71
2023/10/22 14:15:02;;;;;;;;;;;17.60;99.90;;;;;;5073340;28;19947;-73
2023/10/22 14:17:29;;;;;;;;;;;17.30;99.90;;;;;;5077657;28;19951;-71
2023/10/22 14:19:56;;;;;;;;;;;17.00;99.90;;;;;;5072216;28;20183;-71